createdAt,value
2023-08-29T00:00:23.255Z,6.20
2023-08-29T00:02:55.104Z,5.67
2023-08-29T00:05:28.718Z,6.30
2023-08-29T00:08:00.430Z,6.33
2023-08-29T00:10:32.230Z,6.57
2023-08-29T00:13:04.101Z,6.30
2023-08-29T00:15:35.976Z,6.90
2023-08-29T00:18:07.974Z,5.67
2023-08-29T00:20:39.802Z,10.70
2023-08-29T00:23:11.687Z,6.73
2023-08-29T00:25:43.395Z,6.47
2023-08-29T00:28:15.157Z,7.13
2023-08-29T00:30:46.838Z,6.47
2023-08-29T00:33:18.516Z,6.57
2023-08-29T00:35:52.535Z,6.17
2023-08-29T00:38:24.236Z,6.97
2023-08-29T00:40:55.953Z,6.03
2023-08-29T00:43:27.634Z,10.37
2023-08-29T00:46:00.286Z,7.10
2023-08-29T00:48:32.594Z,6.97
2023-08-29T00:51:04.246Z,7.20
2023-08-29T00:53:36.542Z,6.87
2023-08-29T00:56:08.420Z,6.63
2023-08-29T00:58:40.956Z,6.77
2023-08-29T01:01:13.648Z,7.00
2023-08-29T01:03:45.847Z,7.03
2023-08-29T01:06:18.429Z,6.93
2023-08-29T01:08:50.728Z,8.03
2023-08-29T01:11:52.762Z,7.93
2023-08-29T01:14:38.304Z,7.73
2023-08-29T01:17:20.049Z,6.53
2023-08-29T01:19:53.968Z,8.67
2023-08-29T01:22:52.494Z,6.70
2023-08-29T01:25:37.666Z,8.00
2023-08-29T01:28:09.789Z,7.87
2023-08-29T01:30:42.385Z,7.60
2023-08-29T01:33:14.338Z,6.50
2023-08-29T01:35:47.958Z,7.30
2023-08-29T01:38:19.726Z,7.43
2023-08-29T01:40:51.479Z,5.73
2023-08-29T01:43:23.354Z,6.60
2023-08-29T01:45:55.181Z,7.47
2023-08-29T01:48:28.475Z,8.07
2023-08-29T01:51:00.836Z,10.13
2023-08-29T01:53:32.626Z,11.20
2023-08-29T01:56:04.860Z,10.33
2023-08-29T01:58:38.357Z,7.30
2023-08-29T02:01:22.617Z,7.20
2023-08-29T02:03:56.345Z,7.00
2023-08-29T02:06:29.271Z,7.83
2023-08-29T02:09:00.966Z,6.60
2023-08-29T02:11:32.641Z,8.00
2023-08-29T02:14:04.338Z,8.10
2023-08-29T02:16:36.334Z,7.17
2023-08-29T02:19:08.043Z,6.83
2023-08-29T02:21:39.696Z,8.43
2023-08-29T02:24:11.318Z,6.37
2023-08-29T02:26:43.119Z,6.63
2023-08-29T02:29:14.848Z,11.93
2023-08-29T02:31:46.653Z,7.80
2023-08-29T02:34:18.557Z,7.10
2023-08-29T02:36:50.338Z,7.63
2023-08-29T02:39:22.030Z,7.07
2023-08-29T02:41:53.698Z,6.33
2023-08-29T02:44:26.972Z,7.87
2023-08-29T02:46:58.680Z,6.47
2023-08-29T02:49:32.100Z,7.53
2023-08-29T02:52:04.120Z,7.60
2023-08-29T02:54:35.763Z,7.67
2023-08-29T02:57:07.493Z,8.73
2023-08-29T02:59:39.934Z,7.93
2023-08-29T03:02:11.623Z,9.40
2023-08-29T03:04:43.389Z,9.33
2023-08-29T03:07:15.078Z,8.67
2023-08-29T03:09:46.760Z,9.10
2023-08-29T03:12:18.508Z,12.30
2023-08-29T03:14:55.047Z,10.10
2023-08-29T03:17:27.075Z,10.67
2023-08-29T03:19:58.709Z,8.23
2023-08-29T03:22:30.367Z,10.60
2023-08-29T03:25:02.045Z,11.23
2023-08-29T03:27:33.820Z,9.20
2023-08-29T03:30:06.121Z,9.87
2023-08-29T03:32:37.876Z,9.27
2023-08-29T03:35:09.634Z,10.37
2023-08-29T03:37:41.478Z,10.93
2023-08-29T03:40:13.940Z,9.53
2023-08-29T03:42:45.746Z,11.80
2023-08-29T03:45:19.332Z,11.40
2023-08-29T03:47:51.160Z,12.20
2023-08-29T03:50:22.920Z,11.83
2023-08-29T03:52:54.608Z,12.47
2023-08-29T03:55:26.364Z,11.33
2023-08-29T03:57:58.002Z,12.25
2023-08-29T04:00:29.713Z,12.63
2023-08-29T04:03:01.763Z,12.37
2023-08-29T04:05:36.120Z,14.13
2023-08-29T04:08:08.375Z,13.87
2023-08-29T04:10:41.429Z,13.80
2023-08-29T04:13:13.264Z,14.60
2023-08-29T04:15:44.973Z,14.93
2023-08-29T04:18:17.421Z,14.30
2023-08-29T04:20:49.102Z,15.33
2023-08-29T04:23:20.907Z,14.43
2023-08-29T04:26:02.287Z,15.73
2023-08-29T04:28:34.093Z,16.67
2023-08-29T04:31:15.236Z,20.00
2023-08-29T04:33:47.042Z,16.97
2023-08-29T04:36:18.846Z,19.10
2023-08-29T04:38:50.570Z,20.33
2023-08-29T04:41:22.271Z,20.47
2023-08-29T04:43:53.930Z,24.57
2023-08-29T04:46:26.276Z,24.23
2023-08-29T04:48:57.961Z,21.17
2023-08-29T04:51:29.803Z,19.37
2023-08-29T04:54:01.474Z,18.73
2023-08-29T04:56:33.140Z,21.20
2023-08-29T04:59:05.042Z,22.07
2023-08-29T05:01:37.760Z,26.50
2023-08-29T05:04:10.424Z,22.70
2023-08-29T05:06:42.212Z,20.30
2023-08-29T05:09:13.974Z,23.07
2023-08-29T05:11:45.706Z,22.33
2023-08-29T05:14:17.445Z,18.20
2023-08-29T05:16:49.128Z,18.83
2023-08-29T05:19:21.493Z,20.80
2023-08-29T05:21:53.196Z,20.73
2023-08-29T05:24:24.821Z,20.07
2023-08-29T05:26:56.444Z,24.70
2023-08-29T05:29:28.218Z,21.13
2023-08-29T05:31:59.839Z,20.10
2023-08-29T05:34:31.505Z,23.23
2023-08-29T05:37:04.649Z,22.70
2023-08-29T05:39:36.371Z,23.58
2023-08-29T05:42:08.066Z,26.10
2023-08-29T05:44:39.750Z,28.80
2023-08-29T05:47:11.568Z,23.70
2023-08-29T05:49:43.330Z,23.43
2023-08-29T05:52:15.104Z,26.47
2023-08-29T05:54:46.751Z,21.30
2023-08-29T05:57:18.382Z,21.87
2023-08-29T05:59:50.010Z,26.35
2023-08-29T06:02:21.982Z,26.50
2023-08-29T06:04:54.392Z,26.80
2023-08-29T06:07:26.154Z,24.87
2023-08-29T06:09:58.158Z,23.53
2023-08-29T06:12:29.824Z,25.93
2023-08-29T06:15:01.552Z,19.17
2023-08-29T06:17:33.280Z,22.93
2023-08-29T06:20:05.474Z,24.37
2023-08-29T06:22:37.267Z,23.97
2023-08-29T06:25:10.675Z,20.67
2023-08-29T06:27:42.379Z,24.10
2023-08-29T06:30:15.860Z,23.33
2023-08-29T06:32:47.647Z,19.43
2023-08-29T06:35:19.402Z,25.07
2023-08-29T06:37:51.116Z,24.40
2023-08-29T06:40:22.888Z,21.77
2023-08-29T06:42:54.619Z,21.30
2023-08-29T06:45:26.845Z,21.57
2023-08-29T06:47:58.736Z,20.80
2023-08-29T06:50:30.516Z,21.13
2023-08-29T06:53:02.309Z,23.90
2023-08-29T06:55:35.838Z,24.50
2023-08-29T06:58:07.772Z,21.33
2023-08-29T07:00:39.848Z,18.93
2023-08-29T07:03:11.965Z,18.67
2023-08-29T07:05:43.826Z,20.70
2023-08-29T07:08:15.559Z,21.30
2023-08-29T07:10:48.540Z,26.63
2023-08-29T07:13:20.197Z,20.33
2023-08-29T07:15:51.903Z,26.47
2023-08-29T07:18:25.665Z,24.20
2023-08-29T07:21:00.075Z,23.80
2023-08-29T07:23:31.763Z,26.80
2023-08-29T07:26:03.442Z,23.00
2023-08-29T07:28:35.256Z,22.60
2023-08-29T07:31:07.024Z,24.73
2023-08-29T07:33:39.276Z,26.90
2023-08-29T07:36:10.895Z,23.73
2023-08-29T07:38:43.017Z,23.63
2023-08-29T07:41:15.508Z,22.77
2023-08-29T07:43:47.853Z,23.93
2023-08-29T07:46:19.640Z,22.00
2023-08-29T07:48:51.884Z,24.67
2023-08-29T07:51:23.577Z,23.73
2023-08-29T07:53:55.347Z,21.53
2023-08-29T07:56:27.036Z,20.17
2023-08-29T07:58:58.742Z,19.73
2023-08-29T08:01:30.498Z,20.80
2023-08-29T08:04:04.415Z,20.87
2023-08-29T08:06:36.195Z,20.30
2023-08-29T08:09:08.828Z,19.27
2023-08-29T08:11:40.618Z,24.10
2023-08-29T08:14:13.893Z,21.80
2023-08-29T08:16:45.733Z,22.73
2023-08-29T08:19:17.615Z,21.50
2023-08-29T08:21:51.244Z,21.42
2023-08-29T08:24:23.178Z,21.30
2023-08-29T08:26:54.847Z,21.47
2023-08-29T08:29:26.530Z,20.10
2023-08-29T08:31:59.431Z,22.70
2023-08-29T08:34:31.096Z,21.40
2023-08-29T08:37:02.815Z,22.52
2023-08-29T08:39:34.435Z,22.97
2023-08-29T08:42:06.520Z,20.23
2023-08-29T08:44:39.294Z,21.83
2023-08-29T08:47:12.787Z,22.37
2023-08-29T08:49:45.130Z,22.20
2023-08-29T08:52:17.604Z,20.70
2023-08-29T08:54:49.385Z,21.15
2023-08-29T08:57:21.085Z,20.43
2023-08-29T08:59:52.757Z,20.70
2023-08-29T09:02:25.508Z,23.30
2023-08-29T09:04:57.208Z,20.10
2023-08-29T09:07:28.888Z,21.20
2023-08-29T09:10:11.384Z,21.33
2023-08-29T09:12:48.042Z,20.63
2023-08-29T09:15:21.260Z,20.97
2023-08-29T09:17:54.636Z,22.57
2023-08-29T09:20:30.647Z,21.50
2023-08-29T09:23:02.446Z,26.53
2023-08-29T09:25:34.176Z,22.23
2023-08-29T09:28:12.246Z,23.10
2023-08-29T09:30:44.081Z,23.07
2023-08-29T09:33:21.548Z,22.93
2023-08-29T09:35:53.427Z,24.13
2023-08-29T09:38:30.259Z,23.97
2023-08-29T09:41:02.539Z,22.63
2023-08-29T09:43:45.956Z,19.77
2023-08-29T09:46:27.321Z,22.25
2023-08-29T09:48:59.091Z,21.00
2023-08-29T09:51:32.456Z,21.30
2023-08-29T09:54:08.794Z,20.80
2023-08-29T09:56:43.255Z,20.50
2023-08-29T09:59:18.769Z,18.90
2023-08-29T10:01:52.933Z,19.70
2023-08-29T10:04:25.928Z,19.35
2023-08-29T10:07:00.354Z,20.37
2023-08-29T10:09:32.856Z,18.00
2023-08-29T10:12:05.875Z,19.63
2023-08-29T10:14:37.991Z,17.00
2023-08-29T10:17:21.187Z,18.70
2023-08-29T10:20:09.574Z,17.87
2023-08-29T10:22:46.819Z,18.40
2023-08-29T10:25:21.657Z,18.90
2023-08-29T10:27:53.695Z,17.77
2023-08-29T10:30:26.977Z,19.07
2023-08-29T10:32:59.868Z,16.30
2023-08-29T10:35:34.794Z,15.73
2023-08-29T10:38:15.803Z,14.70
2023-08-29T10:40:47.892Z,14.77
2023-08-29T10:43:21.606Z,13.00
2023-08-29T10:45:53.284Z,14.33
2023-08-29T10:48:37.931Z,13.17
2023-08-29T10:51:10.654Z,14.70
2023-08-29T10:53:48.643Z,14.03
2023-08-29T10:58:56.964Z,14.33
2023-08-29T11:01:34.878Z,15.33
2023-08-29T11:04:14.624Z,13.03
2023-08-29T11:06:56.804Z,16.30
2023-08-29T11:09:29.419Z,13.73
2023-08-29T11:12:13.938Z,16.25
2023-08-29T11:14:57.996Z,16.40
2023-08-29T11:17:29.683Z,16.90
2023-08-29T11:20:03.274Z,17.60
2023-08-29T11:22:34.984Z,17.97
2023-08-29T11:25:07.905Z,19.00
2023-08-29T11:27:40.294Z,20.38
2023-08-29T11:32:52.564Z,20.20
2023-08-29T11:35:24.786Z,16.67
2023-08-29T11:37:57.635Z,19.20
2023-08-29T11:40:48.115Z,18.83
2023-08-29T11:43:55.425Z,19.03
2023-08-29T11:46:13.677Z,19.23
2023-08-29T11:48:45.452Z,20.70
2023-08-29T11:51:17.141Z,19.20
2023-08-29T11:53:51.559Z,19.43
2023-08-29T11:56:23.388Z,19.17
2023-08-29T11:58:57.464Z,21.03
2023-08-29T12:01:29.346Z,21.17
2023-08-29T12:04:01.380Z,19.93
2023-08-29T12:06:33.421Z,19.17
2023-08-29T12:09:05.044Z,16.90
2023-08-29T12:11:45.559Z,17.63
2023-08-29T12:14:17.215Z,14.47
2023-08-29T12:16:55.545Z,17.13
2023-08-29T12:19:27.322Z,17.07
2023-08-29T12:21:59.147Z,16.45
2023-08-29T12:24:30.789Z,16.03
2023-08-29T12:27:05.121Z,15.73
2023-08-29T12:29:37.165Z,16.73
2023-08-29T12:32:11.081Z,18.93
2023-08-29T12:34:44.062Z,19.83
2023-08-29T12:37:15.787Z,23.63
2023-08-29T12:39:47.467Z,22.67
2023-08-29T12:42:19.524Z,22.03
2023-08-29T12:44:51.596Z,19.63
2023-08-29T12:47:23.334Z,20.97
2023-08-29T12:49:55.034Z,22.73
2023-08-29T12:52:26.745Z,21.00
2023-08-29T12:54:58.403Z,21.20
2023-08-29T12:57:30.131Z,21.80
2023-08-29T13:00:04.481Z,24.37
2023-08-29T13:02:36.582Z,22.80
2023-08-29T13:05:08.568Z,24.43
2023-08-29T13:07:41.744Z,23.70
2023-08-29T13:10:13.528Z,22.40
2023-08-29T13:12:45.221Z,20.63
2023-08-29T13:15:17.927Z,22.73
2023-08-29T13:17:51.032Z,24.07
2023-08-29T13:20:22.913Z,23.13
2023-08-29T13:22:54.536Z,24.10
2023-08-29T13:25:26.393Z,20.87
2023-08-29T13:27:58.908Z,19.63
2023-08-29T13:30:30.738Z,25.53
2023-08-29T13:33:02.740Z,20.10
2023-08-29T13:35:34.476Z,16.90
2023-08-29T13:38:08.063Z,18.60
2023-08-29T13:40:42.805Z,16.80
2023-08-29T13:43:16.370Z,15.80
2023-08-29T13:45:48.067Z,16.73
2023-08-29T13:48:19.768Z,15.90
2023-08-29T13:50:53.114Z,15.67
2023-08-29T13:53:24.757Z,16.50
2023-08-29T13:55:56.748Z,16.17
2023-08-29T13:58:28.505Z,14.93
2023-08-29T14:01:00.264Z,20.57
2023-08-29T14:03:38.713Z,15.70
2023-08-29T14:06:11.146Z,15.50
2023-08-29T14:08:42.933Z,15.63
2023-08-29T14:11:14.670Z,16.80
2023-08-29T14:13:46.479Z,15.60
2023-08-29T14:16:18.360Z,14.50
2023-08-29T14:18:50.126Z,14.90
2023-08-29T14:21:21.891Z,14.38
2023-08-29T14:23:53.637Z,14.30
2023-08-29T14:26:25.417Z,14.57
2023-08-29T14:28:57.125Z,14.83
2023-08-29T14:31:28.847Z,16.10
2023-08-29T14:34:00.549Z,14.63
2023-08-29T14:36:32.904Z,14.73
2023-08-29T14:39:04.744Z,15.45
2023-08-29T14:41:36.582Z,15.53
2023-08-29T14:44:08.209Z,15.80
2023-08-29T14:46:39.995Z,15.13
2023-08-29T14:49:12.609Z,14.63
2023-08-29T14:51:44.461Z,13.83
2023-08-29T14:54:17.193Z,14.50
2023-08-29T14:56:48.948Z,13.90
2023-08-29T14:59:21.049Z,16.37
2023-08-29T15:01:53.263Z,15.63
2023-08-29T15:04:25.088Z,13.13
2023-08-29T15:06:56.794Z,14.73
2023-08-29T15:09:28.478Z,16.40
2023-08-29T15:12:00.100Z,16.20
2023-08-29T15:14:32.481Z,17.83
2023-08-29T15:17:04.707Z,17.83
2023-08-29T15:19:39.837Z,18.97
2023-08-29T15:22:11.644Z,16.80
2023-08-29T15:24:44.038Z,16.00
2023-08-29T15:27:15.880Z,13.47
2023-08-29T15:29:47.595Z,13.60
2023-08-29T15:32:19.288Z,7.37
2023-08-29T15:34:51.024Z,5.73
2023-08-29T15:37:22.821Z,9.50
2023-08-29T15:39:54.474Z,5.70
2023-08-29T15:42:26.470Z,5.90
2023-08-29T15:44:58.130Z,6.27
2023-08-29T15:47:29.919Z,6.10
2023-08-29T15:50:01.777Z,6.60
2023-08-29T15:52:33.459Z,6.97
2023-08-29T15:55:05.576Z,6.50
2023-08-29T15:57:37.375Z,6.03
2023-08-29T16:00:15.270Z,7.40
2023-08-29T16:02:47.073Z,7.67
2023-08-29T16:05:19.804Z,7.37
2023-08-29T16:07:52.196Z,6.60
2023-08-29T16:10:23.954Z,7.00
2023-08-29T16:12:55.799Z,7.00
2023-08-29T16:15:27.889Z,7.60
2023-08-29T16:17:59.686Z,6.47
2023-08-29T16:20:31.563Z,5.90
2023-08-29T16:23:03.412Z,6.00
2023-08-29T16:25:35.060Z,5.87
2023-08-29T16:28:06.932Z,6.33
2023-08-29T16:30:38.978Z,4.93
2023-08-29T16:33:10.792Z,5.40
2023-08-29T16:35:43.022Z,5.53
2023-08-29T16:38:14.729Z,5.23
2023-08-29T16:40:46.477Z,8.80
2023-08-29T16:43:18.200Z,5.90
2023-08-29T16:45:50.001Z,6.70
2023-08-29T16:48:21.747Z,5.20
2023-08-29T16:50:53.608Z,5.60
2023-08-29T16:53:25.369Z,6.70
2023-08-29T16:55:57.074Z,5.72
2023-08-29T16:58:28.735Z,7.80
2023-08-29T17:01:00.468Z,8.93
2023-08-29T17:03:32.349Z,6.57
2023-08-29T17:06:04.194Z,7.93
2023-08-29T17:08:35.918Z,7.87
2023-08-29T17:11:07.681Z,10.63
2023-08-29T17:13:39.373Z,11.37
2023-08-29T17:16:11.126Z,12.07
2023-08-29T17:18:42.895Z,10.67
2023-08-29T17:21:14.534Z,10.60
2023-08-29T17:23:46.264Z,12.43
2023-08-29T17:26:19.067Z,14.60
2023-08-29T17:28:51.057Z,12.80
2023-08-29T17:31:22.833Z,17.00
2023-08-29T17:33:54.584Z,17.20
2023-08-29T17:36:26.248Z,17.17
2023-08-29T17:38:57.927Z,21.30
2023-08-29T17:41:29.577Z,19.87
2023-08-29T17:44:01.454Z,19.80
2023-08-29T17:46:33.361Z,20.00
2023-08-29T17:49:05.202Z,19.40
2023-08-29T17:51:37.301Z,21.27
2023-08-29T17:54:08.997Z,20.63
2023-08-29T17:56:40.934Z,20.03
2023-08-29T17:59:12.680Z,21.43
2023-08-29T18:01:44.565Z,20.93
2023-08-29T18:04:16.212Z,23.47
2023-08-29T18:06:47.901Z,19.83
2023-08-29T18:09:19.597Z,19.37
2023-08-29T18:11:51.337Z,21.67
2023-08-29T18:14:23.027Z,30.10
2023-08-29T18:16:54.673Z,20.73
2023-08-29T18:19:26.377Z,23.70
2023-08-29T18:21:58.162Z,21.98
2023-08-29T18:24:29.931Z,21.83
2023-08-29T18:27:01.639Z,24.10
2023-08-29T18:29:33.321Z,19.87
2023-08-29T18:32:05.779Z,24.43
2023-08-29T18:34:37.725Z,20.17
2023-08-29T18:37:10.784Z,21.83
2023-08-29T18:39:42.643Z,22.67
2023-08-29T18:42:14.533Z,22.00
2023-08-29T18:44:46.258Z,22.70
2023-08-29T18:47:17.953Z,23.80
2023-08-29T18:49:49.701Z,22.63
2023-08-29T18:52:21.457Z,25.07
2023-08-29T18:54:53.873Z,25.20
2023-08-29T18:57:25.649Z,26.17
2023-08-29T18:59:58.486Z,24.10
2023-08-29T19:02:30.205Z,24.90
2023-08-29T19:05:04.748Z,25.70
2023-08-29T19:07:37.872Z,25.57
2023-08-29T19:10:10.314Z,27.60
2023-08-29T19:12:42.379Z,20.20
2023-08-29T19:15:14.079Z,22.35
2023-08-29T19:17:45.847Z,20.77
2023-08-29T19:20:17.672Z,23.53
2023-08-29T19:22:49.347Z,21.00
2023-08-29T19:25:21.056Z,22.77
2023-08-29T19:27:55.825Z,20.50
2023-08-29T19:30:27.623Z,20.10
2023-08-29T19:33:04.571Z,21.60
2023-08-29T19:35:36.586Z,19.80
2023-08-29T19:38:09.070Z,17.37
2023-08-29T19:40:41.032Z,17.27
2023-08-29T19:43:12.714Z,17.07
2023-08-29T19:45:44.377Z,20.83
2023-08-29T19:48:21.594Z,18.80
2023-08-29T19:50:53.289Z,22.40
2023-08-29T19:53:25.054Z,19.30
2023-08-29T19:55:57.104Z,18.70
2023-08-29T19:58:28.874Z,18.03
2023-08-29T20:01:07.301Z,18.90
2023-08-29T20:03:39.741Z,19.27
2023-08-29T20:06:14.308Z,18.07
2023-08-29T20:08:45.960Z,17.97
2023-08-29T20:11:18.330Z,18.77
2023-08-29T20:13:50.265Z,19.43
2023-08-29T20:16:22.027Z,20.37
2023-08-29T20:18:55.048Z,20.70
2023-08-29T20:21:26.800Z,18.17
2023-08-29T20:24:02.642Z,20.55
2023-08-29T20:26:34.911Z,18.37
2023-08-29T20:29:06.642Z,17.30
2023-08-29T20:31:39.015Z,20.47
2023-08-29T20:34:10.971Z,17.67
2023-08-29T20:36:42.609Z,19.87
2023-08-29T20:39:16.232Z,18.30
2023-08-29T20:41:47.855Z,20.33
2023-08-29T20:44:19.977Z,20.30
2023-08-29T20:46:52.572Z,18.27
2023-08-29T20:49:24.243Z,19.93
2023-08-29T20:51:55.966Z,17.60
2023-08-29T20:54:27.684Z,20.10
2023-08-29T20:56:59.435Z,22.40
2023-08-29T20:59:31.220Z,20.03
2023-08-29T21:02:02.983Z,19.70
2023-08-29T21:04:34.661Z,17.87
2023-08-29T21:07:06.667Z,20.90
2023-08-29T21:09:38.343Z,19.97
2023-08-29T21:12:10.382Z,18.83
2023-08-29T21:14:42.051Z,20.17
2023-08-29T21:17:17.522Z,20.77
2023-08-29T21:19:49.249Z,19.47
2023-08-29T21:22:20.941Z,21.30
2023-08-29T21:24:52.981Z,19.80
2023-08-29T21:27:24.758Z,21.30
2023-08-29T21:29:56.490Z,19.33
2023-08-29T21:32:28.239Z,22.27
2023-08-29T21:34:59.983Z,20.20
2023-08-29T21:37:31.631Z,19.40
2023-08-29T21:40:05.769Z,18.83
2023-08-29T21:42:38.738Z,17.63
2023-08-29T21:45:10.988Z,18.40
2023-08-29T21:47:42.698Z,21.43
2023-08-29T21:50:14.581Z,21.73
2023-08-29T21:52:46.285Z,17.10
2023-08-29T21:55:18.035Z,19.30
2023-08-29T21:57:49.777Z,17.50
2023-08-29T22:00:21.769Z,16.63
2023-08-29T22:02:53.717Z,17.30
2023-08-29T22:05:30.057Z,18.17
2023-08-29T22:08:02.050Z,18.43
2023-08-29T22:10:34.244Z,16.53
2023-08-29T22:13:06.152Z,19.40
2023-08-29T22:15:38.880Z,20.10
2023-08-29T22:18:11.627Z,22.73
2023-08-29T22:20:43.925Z,17.87
2023-08-29T22:23:15.658Z,18.27
2023-08-29T22:25:47.365Z,22.43
2023-08-29T22:28:19.079Z,19.70
2023-08-29T22:30:50.773Z,18.43
2023-08-29T22:33:22.554Z,17.97
2023-08-29T22:35:54.290Z,15.90
2023-08-29T22:38:26.096Z,18.50
2023-08-29T22:41:13.170Z,17.13
2023-08-29T22:43:50.110Z,16.77
2023-08-29T22:46:21.954Z,14.97
2023-08-29T22:48:54.779Z,19.33
2023-08-29T22:51:26.444Z,15.87
2023-08-29T22:53:58.348Z,13.97
2023-08-29T22:56:30.234Z,16.10
2023-08-29T22:59:02.157Z,16.10
2023-08-29T23:01:33.873Z,14.80
2023-08-29T23:04:06.785Z,16.77
2023-08-29T23:06:38.483Z,18.17
2023-08-29T23:09:11.720Z,16.83
2023-08-29T23:11:46.255Z,15.70
2023-08-29T23:14:23.094Z,16.65
2023-08-29T23:16:55.293Z,17.33
2023-08-29T23:19:27.381Z,16.30
2023-08-29T23:21:59.075Z,18.40
2023-08-29T23:24:30.883Z,17.10
2023-08-29T23:27:04.316Z,17.50
2023-08-29T23:29:37.270Z,16.90
2023-08-29T23:32:09.213Z,17.97
2023-08-29T23:34:40.921Z,19.40
2023-08-29T23:37:12.572Z,16.07
2023-08-29T23:39:44.335Z,17.63
2023-08-29T23:42:16.384Z,18.53
2023-08-29T23:44:50.182Z,20.97
2023-08-29T23:47:21.901Z,16.83
2023-08-29T23:49:53.553Z,18.50
2023-08-29T23:52:25.574Z,17.53
2023-08-29T23:54:57.243Z,17.47
2023-08-29T23:57:28.942Z,18.13
